sensor_id;sensor_type;location;lat;lon;timestamp;P1;durP1;ratioP1;P2;durP2;ratioP2
75216;SDS011;63800;51.972;5.682;2022-10-17T00:00:33;12.35;;;7.38;;
75216;SDS011;63800;51.972;5.682;2022-10-17T00:02:58;10.68;;;6.88;;
75216;SDS011;63800;51.972;5.682;2022-10-17T00:05:24;12.38;;;7.68;;
75216;SDS011;63800;51.972;5.682;2022-10-17T00:07:51;11.35;;;7.18;;
75216;SDS011;63800;51.972;5.682;2022-10-17T00:10:17;10.73;;;7.25;;
75216;SDS011;63800;51.972;5.682;2022-10-17T00:12:42;10.50;;;7.75;;
75216;SDS011;63800;51.972;5.682;2022-10-17T00:15:09;9.10;;;6.70;;
75216;SDS011;63800;51.972;5.682;2022-10-17T00:17:38;9.88;;;6.72;;
75216;SDS011;63800;51.972;5.682;2022-10-17T00:20:03;10.30;;;7.50;;
75216;SDS011;63800;51.972;5.682;2022-10-17T00:22:32;9.73;;;7.00;;
75216;SDS011;63800;51.972;5.682;2022-10-17T00:24:57;11.57;;;6.75;;
75216;SDS011;63800;51.972;5.682;2022-10-17T00:27:23;12.32;;;8.13;;
75216;SDS011;63800;51.972;5.682;2022-10-17T00:29:49;10.80;;;7.78;;
75216;SDS011;63800;51.972;5.682;2022-10-17T00:32:15;12.00;;;7.70;;
75216;SDS011;63800;51.972;5.682;2022-10-17T00:34:40;10.18;;;7.55;;
75216;SDS011;63800;51.972;5.682;2022-10-17T00:37:06;11.63;;;7.75;;
75216;SDS011;63800;51.972;5.682;2022-10-17T00:39:31;13.35;;;8.45;;
75216;SDS011;63800;51.972;5.682;2022-10-17T00:41:57;12.88;;;8.43;;
75216;SDS011;63800;51.972;5.682;2022-10-17T00:46:58;13.40;;;8.32;;
75216;SDS011;63800;51.972;5.682;2022-10-17T00:49:26;13.68;;;8.63;;
75216;SDS011;63800;51.972;5.682;2022-10-17T00:51:55;10.45;;;7.75;;
75216;SDS011;63800;51.972;5.682;2022-10-17T00:54:24;11.40;;;8.23;;
75216;SDS011;63800;51.972;5.682;2022-10-17T00:57:03;10.45;;;7.45;;
75216;SDS011;63800;51.972;5.682;2022-10-17T00:59:29;10.70;;;7.55;;
75216;SDS011;63800;51.972;5.682;2022-10-17T01:04:28;13.73;;;8.27;;
75216;SDS011;63800;51.972;5.682;2022-10-17T01:06:54;11.95;;;7.78;;
75216;SDS011;63800;51.972;5.682;2022-10-17T01:09:19;12.52;;;7.95;;
75216;SDS011;63800;51.972;5.682;2022-10-17T01:14:30;13.18;;;8.07;;
75216;SDS011;63800;51.972;5.682;2022-10-17T01:17:07;10.70;;;7.47;;
75216;SDS011;63800;51.972;5.682;2022-10-17T01:36:35;11.40;;;8.05;;
75216;SDS011;63800;51.972;5.682;2022-10-17T01:39:08;11.02;;;8.23;;
75216;SDS011;63800;51.972;5.682;2022-10-17T01:44:48;10.93;;;8.15;;
75216;SDS011;63800;51.972;5.682;2022-10-17T01:47:27;14.43;;;8.32;;
75216;SDS011;63800;51.972;5.682;2022-10-17T01:49:56;11.67;;;8.67;;
75216;SDS011;63800;51.972;5.682;2022-10-17T01:52:28;11.15;;;8.27;;
75216;SDS011;63800;51.972;5.682;2022-10-17T01:55:24;12.50;;;8.10;;
75216;SDS011;63800;51.972;5.682;2022-10-17T01:58:26;13.48;;;9.10;;
75216;SDS011;63800;51.972;5.682;2022-10-17T02:01:16;10.80;;;7.70;;
75216;SDS011;63800;51.972;5.682;2022-10-17T02:03:43;13.88;;;8.93;;
75216;SDS011;63800;51.972;5.682;2022-10-17T02:06:10;13.00;;;8.23;;
75216;SDS011;63800;51.972;5.682;2022-10-17T02:08:41;13.32;;;8.70;;
75216;SDS011;63800;51.972;5.682;2022-10-17T02:22:23;11.02;;;7.93;;
75216;SDS011;63800;51.972;5.682;2022-10-17T02:27:51;15.23;;;8.68;;
75216;SDS011;63800;51.972;5.682;2022-10-17T02:30:28;12.30;;;8.15;;
75216;SDS011;63800;51.972;5.682;2022-10-17T02:33:01;17.55;;;7.95;;
75216;SDS011;63800;51.972;5.682;2022-10-17T02:35:32;11.27;;;7.80;;
75216;SDS011;63800;51.972;5.682;2022-10-17T02:38:02;12.30;;;8.02;;
75216;SDS011;63800;51.972;5.682;2022-10-17T02:40:30;14.20;;;8.25;;
75216;SDS011;63800;51.972;5.682;2022-10-17T02:42:57;11.50;;;8.35;;
75216;SDS011;63800;51.972;5.682;2022-10-17T02:45:23;10.07;;;7.22;;
75216;SDS011;63800;51.972;5.682;2022-10-17T02:48:01;11.77;;;7.95;;
75216;SDS011;63800;51.972;5.682;2022-10-17T02:50:52;10.43;;;8.00;;
75216;SDS011;63800;51.972;5.682;2022-10-17T02:53:31;11.65;;;7.90;;
75216;SDS011;63800;51.972;5.682;2022-10-17T02:56:03;11.98;;;8.07;;
75216;SDS011;63800;51.972;5.682;2022-10-17T02:58:36;10.38;;;8.05;;
75216;SDS011;63800;51.972;5.682;2022-10-17T03:01:03;19.13;;;8.32;;
75216;SDS011;63800;51.972;5.682;2022-10-17T03:03:29;12.95;;;8.38;;
75216;SDS011;63800;51.972;5.682;2022-10-17T03:05:56;12.57;;;8.73;;
75216;SDS011;63800;51.972;5.682;2022-10-17T03:08:22;10.75;;;7.53;;
75216;SDS011;63800;51.972;5.682;2022-10-17T03:10:48;12.18;;;8.30;;
75216;SDS011;63800;51.972;5.682;2022-10-17T03:13:14;13.90;;;8.63;;
75216;SDS011;63800;51.972;5.682;2022-10-17T03:15:40;12.40;;;8.40;;
75216;SDS011;63800;51.972;5.682;2022-10-17T03:18:06;12.55;;;7.95;;
75216;SDS011;63800;51.972;5.682;2022-10-17T03:20:32;12.50;;;7.57;;
75216;SDS011;63800;51.972;5.682;2022-10-17T03:22:57;12.60;;;8.57;;
75216;SDS011;63800;51.972;5.682;2022-10-17T03:25:23;11.32;;;8.07;;
75216;SDS011;63800;51.972;5.682;2022-10-17T03:27:49;13.27;;;8.32;;
75216;SDS011;63800;51.972;5.682;2022-10-17T03:30:15;12.85;;;8.55;;
75216;SDS011;63800;51.972;5.682;2022-10-17T03:32:40;12.18;;;7.90;;
75216;SDS011;63800;51.972;5.682;2022-10-17T03:35:06;14.15;;;8.02;;
75216;SDS011;63800;51.972;5.682;2022-10-17T03:37:31;11.13;;;7.97;;
75216;SDS011;63800;51.972;5.682;2022-10-17T03:39:57;14.32;;;9.10;;
75216;SDS011;63800;51.972;5.682;2022-10-17T03:42:22;13.30;;;7.95;;
75216;SDS011;63800;51.972;5.682;2022-10-17T03:44:48;10.95;;;7.13;;
75216;SDS011;63800;51.972;5.682;2022-10-17T03:47:13;12.57;;;8.45;;
75216;SDS011;63800;51.972;5.682;2022-10-17T03:49:38;12.05;;;7.47;;
75216;SDS011;63800;51.972;5.682;2022-10-17T03:52:04;12.00;;;7.68;;
75216;SDS011;63800;51.972;5.682;2022-10-17T03:54:29;12.63;;;7.95;;
75216;SDS011;63800;51.972;5.682;2022-10-17T03:56:55;10.38;;;7.32;;
75216;SDS011;63800;51.972;5.682;2022-10-17T03:59:20;11.15;;;7.90;;
75216;SDS011;63800;51.972;5.682;2022-10-17T04:01:45;11.25;;;8.00;;
75216;SDS011;63800;51.972;5.682;2022-10-17T04:04:11;11.63;;;8.00;;
75216;SDS011;63800;51.972;5.682;2022-10-17T04:06:36;12.80;;;8.02;;
75216;SDS011;63800;51.972;5.682;2022-10-17T04:09:03;13.32;;;8.38;;
75216;SDS011;63800;51.972;5.682;2022-10-17T04:11:30;11.30;;;7.88;;
75216;SDS011;63800;51.972;5.682;2022-10-17T04:13:55;13.18;;;8.45;;
75216;SDS011;63800;51.972;5.682;2022-10-17T04:16:22;11.27;;;7.70;;
75216;SDS011;63800;51.972;5.682;2022-10-17T04:18:51;11.93;;;8.43;;
75216;SDS011;63800;51.972;5.682;2022-10-17T04:21:19;10.27;;;7.68;;
75216;SDS011;63800;51.972;5.682;2022-10-17T04:23:45;16.02;;;9.25;;
75216;SDS011;63800;51.972;5.682;2022-10-17T04:26:10;10.90;;;7.95;;
75216;SDS011;63800;51.972;5.682;2022-10-17T04:28:36;17.02;;;8.75;;
75216;SDS011;63800;51.972;5.682;2022-10-17T04:31:05;18.38;;;9.13;;
75216;SDS011;63800;51.972;5.682;2022-10-17T04:33:33;14.10;;;8.60;;
75216;SDS011;63800;51.972;5.682;2022-10-17T04:38:25;12.75;;;8.10;;
75216;SDS011;63800;51.972;5.682;2022-10-17T04:40:51;12.13;;;7.47;;
75216;SDS011;63800;51.972;5.682;2022-10-17T04:43:17;11.77;;;8.57;;
75216;SDS011;63800;51.972;5.682;2022-10-17T04:45:42;14.05;;;8.32;;
75216;SDS011;63800;51.972;5.682;2022-10-17T04:48:07;13.70;;;8.25;;
75216;SDS011;63800;51.972;5.682;2022-10-17T04:50:33;11.98;;;8.48;;
75216;SDS011;63800;51.972;5.682;2022-10-17T04:52:58;11.88;;;8.30;;
75216;SDS011;63800;51.972;5.682;2022-10-17T04:55:24;13.18;;;8.32;;
75216;SDS011;63800;51.972;5.682;2022-10-17T04:57:49;13.80;;;8.60;;
75216;SDS011;63800;51.972;5.682;2022-10-17T05:00:14;13.60;;;8.50;;
75216;SDS011;63800;51.972;5.682;2022-10-17T05:02:40;11.35;;;8.27;;
75216;SDS011;63800;51.972;5.682;2022-10-17T05:05:05;14.40;;;9.00;;
75216;SDS011;63800;51.972;5.682;2022-10-17T05:07:31;13.18;;;8.13;;
75216;SDS011;63800;51.972;5.682;2022-10-17T05:09:56;12.10;;;8.20;;
75216;SDS011;63800;51.972;5.682;2022-10-17T05:12:22;12.30;;;8.70;;
75216;SDS011;63800;51.972;5.682;2022-10-17T05:14:48;14.88;;;8.50;;
75216;SDS011;63800;51.972;5.682;2022-10-17T05:17:13;11.50;;;7.55;;
75216;SDS011;63800;51.972;5.682;2022-10-17T05:19:39;10.90;;;7.90;;
75216;SDS011;63800;51.972;5.682;2022-10-17T05:22:04;11.02;;;7.90;;
75216;SDS011;63800;51.972;5.682;2022-10-17T05:24:30;11.45;;;7.47;;
75216;SDS011;63800;51.972;5.682;2022-10-17T05:26:56;12.15;;;8.45;;
75216;SDS011;63800;51.972;5.682;2022-10-17T05:29:21;13.68;;;8.93;;
75216;SDS011;63800;51.972;5.682;2022-10-17T05:31:47;11.18;;;8.10;;
75216;SDS011;63800;51.972;5.682;2022-10-17T05:34:12;13.95;;;8.18;;
75216;SDS011;63800;51.972;5.682;2022-10-17T05:36:38;12.90;;;7.97;;
75216;SDS011;63800;51.972;5.682;2022-10-17T05:39:03;15.25;;;8.77;;
75216;SDS011;63800;51.972;5.682;2022-10-17T05:41:28;14.43;;;9.00;;
75216;SDS011;63800;51.972;5.682;2022-10-17T05:43:54;15.82;;;9.45;;
75216;SDS011;63800;51.972;5.682;2022-10-17T05:46:19;12.20;;;8.93;;
75216;SDS011;63800;51.972;5.682;2022-10-17T05:48:45;11.88;;;8.55;;
75216;SDS011;63800;51.972;5.682;2022-10-17T05:51:10;13.13;;;8.57;;
75216;SDS011;63800;51.972;5.682;2022-10-17T05:53:37;14.80;;;8.15;;
75216;SDS011;63800;51.972;5.682;2022-10-17T05:56:05;16.73;;;9.10;;
75216;SDS011;63800;51.972;5.682;2022-10-17T05:58:32;13.25;;;8.10;;
75216;SDS011;63800;51.972;5.682;2022-10-17T06:01:03;12.80;;;7.95;;
75216;SDS011;63800;51.972;5.682;2022-10-17T06:03:29;13.95;;;8.57;;
75216;SDS011;63800;51.972;5.682;2022-10-17T06:05:55;12.90;;;8.85;;
75216;SDS011;63800;51.972;5.682;2022-10-17T06:08:21;13.15;;;8.38;;
75216;SDS011;63800;51.972;5.682;2022-10-17T06:10:47;12.10;;;8.70;;
75216;SDS011;63800;51.972;5.682;2022-10-17T06:13:14;13.40;;;8.48;;
75216;SDS011;63800;51.972;5.682;2022-10-17T06:15:41;13.20;;;8.23;;
75216;SDS011;63800;51.972;5.682;2022-10-17T06:18:06;11.38;;;8.55;;
75216;SDS011;63800;51.972;5.682;2022-10-17T06:20:31;16.58;;;8.90;;
75216;SDS011;63800;51.972;5.682;2022-10-17T06:22:57;11.90;;;8.35;;
75216;SDS011;63800;51.972;5.682;2022-10-17T06:25:22;12.27;;;8.25;;
75216;SDS011;63800;51.972;5.682;2022-10-17T06:27:48;13.15;;;8.85;;
75216;SDS011;63800;51.972;5.682;2022-10-17T06:30:13;13.18;;;8.98;;
75216;SDS011;63800;51.972;5.682;2022-10-17T06:32:39;10.77;;;8.00;;
75216;SDS011;63800;51.972;5.682;2022-10-17T06:35:04;13.23;;;8.07;;
75216;SDS011;63800;51.972;5.682;2022-10-17T06:37:30;13.75;;;9.00;;
75216;SDS011;63800;51.972;5.682;2022-10-17T06:39:57;14.43;;;9.38;;
75216;SDS011;63800;51.972;5.682;2022-10-17T06:42:23;14.98;;;8.93;;
75216;SDS011;63800;51.972;5.682;2022-10-17T06:44:48;13.73;;;8.55;;
75216;SDS011;63800;51.972;5.682;2022-10-17T06:47:13;11.90;;;8.35;;
75216;SDS011;63800;51.972;5.682;2022-10-17T06:49:39;13.60;;;8.43;;
75216;SDS011;63800;51.972;5.682;2022-10-17T06:52:04;11.98;;;8.27;;
75216;SDS011;63800;51.972;5.682;2022-10-17T06:54:30;14.30;;;8.68;;
75216;SDS011;63800;51.972;5.682;2022-10-17T06:56:55;14.82;;;8.65;;
75216;SDS011;63800;51.972;5.682;2022-10-17T06:59:21;14.23;;;8.23;;
75216;SDS011;63800;51.972;5.682;2022-10-17T07:01:46;12.65;;;7.57;;
75216;SDS011;63800;51.972;5.682;2022-10-17T07:04:12;13.90;;;8.30;;
75216;SDS011;63800;51.972;5.682;2022-10-17T07:06:37;14.13;;;8.52;;
75216;SDS011;63800;51.972;5.682;2022-10-17T07:09:03;12.70;;;8.13;;
75216;SDS011;63800;51.972;5.682;2022-10-17T07:11:31;12.27;;;8.18;;
75216;SDS011;63800;51.972;5.682;2022-10-17T07:13:57;13.25;;;7.90;;
75216;SDS011;63800;51.972;5.682;2022-10-17T07:16:23;10.40;;;7.35;;
75216;SDS011;63800;51.972;5.682;2022-10-17T07:18:49;16.83;;;8.73;;
75216;SDS011;63800;51.972;5.682;2022-10-17T07:21:15;13.80;;;9.00;;
75216;SDS011;63800;51.972;5.682;2022-10-17T07:23:41;14.90;;;7.90;;
75216;SDS011;63800;51.972;5.682;2022-10-17T07:26:07;17.98;;;8.70;;
75216;SDS011;63800;51.972;5.682;2022-10-17T07:28:42;13.38;;;8.50;;
75216;SDS011;63800;51.972;5.682;2022-10-17T07:31:11;11.95;;;7.65;;
75216;SDS011;63800;51.972;5.682;2022-10-17T07:33:41;15.63;;;8.80;;
75216;SDS011;63800;51.972;5.682;2022-10-17T07:36:07;14.75;;;8.88;;
75216;SDS011;63800;51.972;5.682;2022-10-17T07:38:33;14.90;;;8.02;;
75216;SDS011;63800;51.972;5.682;2022-10-17T07:41:01;13.98;;;8.05;;
75216;SDS011;63800;51.972;5.682;2022-10-17T07:43:29;11.32;;;7.00;;
75216;SDS011;63800;51.972;5.682;2022-10-17T07:45:55;11.07;;;7.93;;
75216;SDS011;63800;51.972;5.682;2022-10-17T07:48:21;13.65;;;7.45;;
75216;SDS011;63800;51.972;5.682;2022-10-17T07:50:47;11.27;;;7.50;;
75216;SDS011;63800;51.972;5.682;2022-10-17T07:53:13;12.18;;;7.85;;
75216;SDS011;63800;51.972;5.682;2022-10-17T07:55:39;11.60;;;8.18;;
75216;SDS011;63800;51.972;5.682;2022-10-17T07:58:06;15.25;;;8.65;;
75216;SDS011;63800;51.972;5.682;2022-10-17T08:00:32;15.55;;;8.95;;
75216;SDS011;63800;51.972;5.682;2022-10-17T08:02:58;12.13;;;8.35;;
75216;SDS011;63800;51.972;5.682;2022-10-17T08:05:23;13.35;;;8.57;;
75216;SDS011;63800;51.972;5.682;2022-10-17T08:07:49;14.05;;;8.45;;
75216;SDS011;63800;51.972;5.682;2022-10-17T08:10:14;14.93;;;8.38;;
75216;SDS011;63800;51.972;5.682;2022-10-17T08:12:40;13.98;;;8.60;;
75216;SDS011;63800;51.972;5.682;2022-10-17T08:15:07;15.63;;;8.30;;
75216;SDS011;63800;51.972;5.682;2022-10-17T08:17:34;17.00;;;8.75;;
75216;SDS011;63800;51.972;5.682;2022-10-17T08:20:00;13.30;;;8.85;;
75216;SDS011;63800;51.972;5.682;2022-10-17T08:22:26;18.05;;;9.95;;
75216;SDS011;63800;51.972;5.682;2022-10-17T08:24:51;16.30;;;9.48;;
75216;SDS011;63800;51.972;5.682;2022-10-17T08:27:17;15.98;;;8.85;;
75216;SDS011;63800;51.972;5.682;2022-10-17T08:29:47;18.33;;;10.20;;
75216;SDS011;63800;51.972;5.682;2022-10-17T08:32:16;16.17;;;8.93;;
75216;SDS011;63800;51.972;5.682;2022-10-17T08:34:43;14.38;;;9.23;;
75216;SDS011;63800;51.972;5.682;2022-10-17T08:37:08;12.13;;;8.10;;
75216;SDS011;63800;51.972;5.682;2022-10-17T08:39:33;13.93;;;9.10;;
75216;SDS011;63800;51.972;5.682;2022-10-17T08:44:58;17.42;;;9.65;;
75216;SDS011;63800;51.972;5.682;2022-10-17T08:47:44;15.80;;;9.80;;
75216;SDS011;63800;51.972;5.682;2022-10-17T08:50:13;15.95;;;10.27;;
75216;SDS011;63800;51.972;5.682;2022-10-17T08:52:54;15.70;;;10.30;;
75216;SDS011;63800;51.972;5.682;2022-10-17T08:55:36;16.13;;;9.82;;
75216;SDS011;63800;51.972;5.682;2022-10-17T08:58:10;16.15;;;9.80;;
75216;SDS011;63800;51.972;5.682;2022-10-17T09:00:38;15.98;;;9.32;;
75216;SDS011;63800;51.972;5.682;2022-10-17T09:03:44;15.05;;;9.38;;
75216;SDS011;63800;51.972;5.682;2022-10-17T09:09:20;14.07;;;9.02;;
75216;SDS011;63800;51.972;5.682;2022-10-17T09:11:54;14.00;;;9.80;;
75216;SDS011;63800;51.972;5.682;2022-10-17T09:20:15;21.63;;;12.73;;
75216;SDS011;63800;51.972;5.682;2022-10-17T09:22:53;19.02;;;11.52;;
75216;SDS011;63800;51.972;5.682;2022-10-17T09:25:26;16.60;;;11.02;;
75216;SDS011;63800;51.972;5.682;2022-10-17T09:30:24;15.38;;;10.65;;
75216;SDS011;63800;51.972;5.682;2022-10-17T09:33:07;20.25;;;10.82;;
75216;SDS011;63800;51.972;5.682;2022-10-17T09:35:40;14.65;;;10.27;;
75216;SDS011;63800;51.972;5.682;2022-10-17T09:38:10;15.57;;;10.20;;
75216;SDS011;63800;51.972;5.682;2022-10-17T09:40:40;15.95;;;11.00;;
75216;SDS011;63800;51.972;5.682;2022-10-17T09:43:06;15.52;;;10.70;;
75216;SDS011;63800;51.972;5.682;2022-10-17T09:45:37;15.05;;;8.80;;
75216;SDS011;63800;51.972;5.682;2022-10-17T09:50:51;17.58;;;11.05;;
75216;SDS011;63800;51.972;5.682;2022-10-17T09:53:19;20.27;;;10.27;;
75216;SDS011;63800;51.972;5.682;2022-10-17T09:55:50;14.02;;;9.15;;
75216;SDS011;63800;51.972;5.682;2022-10-17T09:58:20;14.73;;;9.20;;
75216;SDS011;63800;51.972;5.682;2022-10-17T10:00:47;12.07;;;8.77;;
75216;SDS011;63800;51.972;5.682;2022-10-17T10:03:23;12.88;;;8.77;;
75216;SDS011;63800;51.972;5.682;2022-10-17T10:06:02;13.95;;;8.80;;
75216;SDS011;63800;51.972;5.682;2022-10-17T10:08:33;13.35;;;8.63;;
75216;SDS011;63800;51.972;5.682;2022-10-17T10:11:02;16.30;;;9.10;;
75216;SDS011;63800;51.972;5.682;2022-10-17T10:13:31;15.85;;;8.32;;
75216;SDS011;63800;51.972;5.682;2022-10-17T10:16:17;11.73;;;8.05;;
75216;SDS011;63800;51.972;5.682;2022-10-17T10:18:53;14.38;;;8.80;;
75216;SDS011;63800;51.972;5.682;2022-10-17T10:21:20;11.90;;;8.57;;
75216;SDS011;63800;51.972;5.682;2022-10-17T10:26:37;15.02;;;9.23;;
75216;SDS011;63800;51.972;5.682;2022-10-17T10:29:15;12.93;;;8.52;;
75216;SDS011;63800;51.972;5.682;2022-10-17T10:34:47;12.98;;;7.75;;
75216;SDS011;63800;51.972;5.682;2022-10-17T10:37:18;11.60;;;8.25;;
75216;SDS011;63800;51.972;5.682;2022-10-17T10:39:50;12.85;;;7.82;;
75216;SDS011;63800;51.972;5.682;2022-10-17T10:44:58;11.82;;;7.45;;
75216;SDS011;63800;51.972;5.682;2022-10-17T10:47:40;9.68;;;6.97;;
75216;SDS011;63800;51.972;5.682;2022-10-17T10:50:25;9.35;;;6.45;;
75216;SDS011;63800;51.972;5.682;2022-10-17T10:52:59;9.93;;;6.95;;
75216;SDS011;63800;51.972;5.682;2022-10-17T10:55:49;8.73;;;6.30;;
75216;SDS011;63800;51.972;5.682;2022-10-17T11:01:05;9.10;;;6.45;;
75216;SDS011;63800;51.972;5.682;2022-10-17T11:04:05;10.27;;;7.15;;
75216;SDS011;63800;51.972;5.682;2022-10-17T11:06:45;9.73;;;6.68;;
75216;SDS011;63800;51.972;5.682;2022-10-17T11:09:23;11.40;;;7.38;;
75216;SDS011;63800;51.972;5.682;2022-10-17T11:12:30;11.50;;;7.93;;
75216;SDS011;63800;51.972;5.682;2022-10-17T11:15:00;11.80;;;7.43;;
75216;SDS011;63800;51.972;5.682;2022-10-17T11:17:34;13.20;;;7.65;;
75216;SDS011;63800;51.972;5.682;2022-10-17T11:20:20;10.40;;;7.43;;
75216;SDS011;63800;51.972;5.682;2022-10-17T11:23:29;11.82;;;8.02;;
75216;SDS011;63800;51.972;5.682;2022-10-17T11:26:04;12.32;;;8.18;;
75216;SDS011;63800;51.972;5.682;2022-10-17T11:28:34;13.07;;;8.00;;
75216;SDS011;63800;51.972;5.682;2022-10-17T11:31:08;12.10;;;8.20;;
75216;SDS011;63800;51.972;5.682;2022-10-17T11:33:49;13.57;;;7.40;;
75216;SDS011;63800;51.972;5.682;2022-10-17T11:36:21;12.15;;;8.32;;
75216;SDS011;63800;51.972;5.682;2022-10-17T11:39:07;12.07;;;8.43;;
75216;SDS011;63800;51.972;5.682;2022-10-17T11:41:44;14.90;;;9.13;;
75216;SDS011;63800;51.972;5.682;2022-10-17T11:46:59;13.32;;;9.02;;
75216;SDS011;63800;51.972;5.682;2022-10-17T11:49:47;14.38;;;9.75;;
75216;SDS011;63800;51.972;5.682;2022-10-17T11:55:16;16.15;;;9.43;;
75216;SDS011;63800;51.972;5.682;2022-10-17T12:18:43;11.10;;;7.70;;
75216;SDS011;63800;51.972;5.682;2022-10-17T12:21:13;13.25;;;9.30;;
75216;SDS011;63800;51.972;5.682;2022-10-17T12:23:39;14.25;;;8.75;;
75216;SDS011;63800;51.972;5.682;2022-10-17T12:26:06;12.18;;;8.77;;
75216;SDS011;63800;51.972;5.682;2022-10-17T12:31:06;15.38;;;9.05;;
75216;SDS011;63800;51.972;5.682;2022-10-17T12:33:53;14.20;;;9.35;;
75216;SDS011;63800;51.972;5.682;2022-10-17T12:49:35;16.73;;;9.82;;
75216;SDS011;63800;51.972;5.682;2022-10-17T12:52:24;13.27;;;8.68;;
75216;SDS011;63800;51.972;5.682;2022-10-17T12:57:34;17.33;;;10.55;;
75216;SDS011;63800;51.972;5.682;2022-10-17T13:02:42;15.07;;;10.52;;
75216;SDS011;63800;51.972;5.682;2022-10-17T13:07:51;18.50;;;12.02;;
75216;SDS011;63800;51.972;5.682;2022-10-17T13:10:19;21.77;;;13.65;;
75216;SDS011;63800;51.972;5.682;2022-10-17T13:12:47;16.60;;;11.40;;
75216;SDS011;63800;51.972;5.682;2022-10-17T13:15:15;17.75;;;11.80;;
75216;SDS011;63800;51.972;5.682;2022-10-17T13:17:43;17.00;;;11.50;;
75216;SDS011;63800;51.972;5.682;2022-10-17T13:20:18;18.70;;;12.00;;
75216;SDS011;63800;51.972;5.682;2022-10-17T13:22:47;15.15;;;11.02;;
75216;SDS011;63800;51.972;5.682;2022-10-17T13:25:14;17.98;;;11.13;;
75216;SDS011;63800;51.972;5.682;2022-10-17T13:27:40;19.67;;;10.88;;
75216;SDS011;63800;51.972;5.682;2022-10-17T13:32:51;18.48;;;11.38;;
75216;SDS011;63800;51.972;5.682;2022-10-17T13:35:33;19.10;;;12.65;;
75216;SDS011;63800;51.972;5.682;2022-10-17T13:38:02;18.85;;;11.43;;
75216;SDS011;63800;51.972;5.682;2022-10-17T13:40:31;15.80;;;10.70;;
75216;SDS011;63800;51.972;5.682;2022-10-17T13:43:08;17.35;;;10.70;;
75216;SDS011;63800;51.972;5.682;2022-10-17T13:45:43;17.27;;;11.23;;
75216;SDS011;63800;51.972;5.682;2022-10-17T13:48:18;13.82;;;9.85;;
75216;SDS011;63800;51.972;5.682;2022-10-17T13:50:48;12.88;;;9.88;;
75216;SDS011;63800;51.972;5.682;2022-10-17T13:55:52;13.70;;;10.07;;
75216;SDS011;63800;51.972;5.682;2022-10-17T13:58:20;18.67;;;10.75;;
75216;SDS011;63800;51.972;5.682;2022-10-17T14:00:45;16.35;;;10.40;;
75216;SDS011;63800;51.972;5.682;2022-10-17T14:03:14;14.75;;;10.18;;
75216;SDS011;63800;51.972;5.682;2022-10-17T14:11:21;14.55;;;10.18;;
75216;SDS011;63800;51.972;5.682;2022-10-17T14:13:49;16.65;;;10.55;;
75216;SDS011;63800;51.972;5.682;2022-10-17T14:16:16;14.88;;;10.77;;
75216;SDS011;63800;51.972;5.682;2022-10-17T14:18:44;16.90;;;10.60;;
75216;SDS011;63800;51.972;5.682;2022-10-17T14:21:17;17.05;;;10.45;;
75216;SDS011;63800;51.972;5.682;2022-10-17T14:23:48;14.73;;;11.05;;
75216;SDS011;63800;51.972;5.682;2022-10-17T14:26:16;14.85;;;9.77;;
75216;SDS011;63800;51.972;5.682;2022-10-17T14:28:47;15.00;;;10.23;;
75216;SDS011;63800;51.972;5.682;2022-10-17T14:31:30;15.68;;;10.20;;
75216;SDS011;63800;51.972;5.682;2022-10-17T14:33:58;15.55;;;11.15;;
75216;SDS011;63800;51.972;5.682;2022-10-17T14:36:37;13.68;;;10.50;;
75216;SDS011;63800;51.972;5.682;2022-10-17T14:39:07;16.17;;;11.10;;
75216;SDS011;63800;51.972;5.682;2022-10-17T14:41:44;14.10;;;10.88;;
75216;SDS011;63800;51.972;5.682;2022-10-17T14:44:22;18.73;;;10.82;;
75216;SDS011;63800;51.972;5.682;2022-10-17T14:46:57;15.02;;;9.75;;
75216;SDS011;63800;51.972;5.682;2022-10-17T14:49:26;25.05;;;10.15;;
75216;SDS011;63800;51.972;5.682;2022-10-17T14:52:21;14.68;;;10.40;;
75216;SDS011;63800;51.972;5.682;2022-10-17T14:54:50;15.20;;;9.23;;
75216;SDS011;63800;51.972;5.682;2022-10-17T14:57:16;17.33;;;9.73;;
75216;SDS011;63800;51.972;5.682;2022-10-17T14:59:43;14.73;;;9.52;;
75216;SDS011;63800;51.972;5.682;2022-10-17T15:02:12;14.52;;;10.20;;
75216;SDS011;63800;51.972;5.682;2022-10-17T15:04:37;16.15;;;10.02;;
75216;SDS011;63800;51.972;5.682;2022-10-17T15:07:03;14.38;;;9.93;;
75216;SDS011;63800;51.972;5.682;2022-10-17T15:09:29;14.65;;;10.00;;
75216;SDS011;63800;51.972;5.682;2022-10-17T15:11:55;15.93;;;11.20;;
75216;SDS011;63800;51.972;5.682;2022-10-17T15:14:26;18.67;;;11.63;;
75216;SDS011;63800;51.972;5.682;2022-10-17T15:16:51;19.80;;;11.85;;
75216;SDS011;63800;51.972;5.682;2022-10-17T15:19:17;20.83;;;12.57;;
75216;SDS011;63800;51.972;5.682;2022-10-17T15:21:42;21.08;;;13.13;;
75216;SDS011;63800;51.972;5.682;2022-10-17T15:24:08;20.58;;;14.15;;
75216;SDS011;63800;51.972;5.682;2022-10-17T15:26:33;20.65;;;14.07;;
75216;SDS011;63800;51.972;5.682;2022-10-17T15:28:59;17.58;;;12.50;;
75216;SDS011;63800;51.972;5.682;2022-10-17T15:31:25;17.77;;;12.18;;
75216;SDS011;63800;51.972;5.682;2022-10-17T15:33:53;18.75;;;12.60;;
75216;SDS011;63800;51.972;5.682;2022-10-17T15:39:06;17.77;;;12.30;;
75216;SDS011;63800;51.972;5.682;2022-10-17T15:41:33;19.75;;;14.18;;
75216;SDS011;63800;51.972;5.682;2022-10-17T15:43:59;22.02;;;14.13;;
75216;SDS011;63800;51.972;5.682;2022-10-17T15:46:27;21.80;;;14.85;;
75216;SDS011;63800;51.972;5.682;2022-10-17T15:48:56;20.38;;;13.93;;
75216;SDS011;63800;51.972;5.682;2022-10-17T15:51:27;20.52;;;14.48;;
75216;SDS011;63800;51.972;5.682;2022-10-17T15:53:52;22.02;;;15.30;;
75216;SDS011;63800;51.972;5.682;2022-10-17T15:56:25;25.10;;;16.23;;
75216;SDS011;63800;51.972;5.682;2022-10-17T15:58:53;24.83;;;16.83;;
75216;SDS011;63800;51.972;5.682;2022-10-17T16:01:20;26.45;;;17.58;;
75216;SDS011;63800;51.972;5.682;2022-10-17T16:03:51;29.80;;;18.20;;
75216;SDS011;63800;51.972;5.682;2022-10-17T16:06:17;26.73;;;16.20;;
75216;SDS011;63800;51.972;5.682;2022-10-17T16:08:44;27.95;;;16.67;;
75216;SDS011;63800;51.972;5.682;2022-10-17T16:11:16;23.70;;;16.80;;
75216;SDS011;63800;51.972;5.682;2022-10-17T16:13:47;29.15;;;17.35;;
75216;SDS011;63800;51.972;5.682;2022-10-17T16:16:15;26.08;;;17.15;;
75216;SDS011;63800;51.972;5.682;2022-10-17T16:18:41;24.30;;;14.35;;
75216;SDS011;63800;51.972;5.682;2022-10-17T16:21:08;24.83;;;16.02;;
75216;SDS011;63800;51.972;5.682;2022-10-17T16:23:37;23.65;;;15.13;;
75216;SDS011;63800;51.972;5.682;2022-10-17T16:26:03;25.17;;;15.60;;
75216;SDS011;63800;51.972;5.682;2022-10-17T16:28:29;21.80;;;14.48;;
75216;SDS011;63800;51.972;5.682;2022-10-17T16:30:54;22.13;;;14.50;;
75216;SDS011;63800;51.972;5.682;2022-10-17T16:33:19;24.95;;;16.02;;
75216;SDS011;63800;51.972;5.682;2022-10-17T16:35:45;26.13;;;15.68;;
75216;SDS011;63800;51.972;5.682;2022-10-17T16:38:13;23.75;;;15.55;;
75216;SDS011;63800;51.972;5.682;2022-10-17T16:40:38;27.30;;;17.30;;
75216;SDS011;63800;51.972;5.682;2022-10-17T16:43:04;29.50;;;18.25;;
75216;SDS011;63800;51.972;5.682;2022-10-17T16:45:30;30.55;;;19.70;;
75216;SDS011;63800;51.972;5.682;2022-10-17T16:47:55;32.85;;;20.35;;
75216;SDS011;63800;51.972;5.682;2022-10-17T16:50:20;31.95;;;20.50;;
75216;SDS011;63800;51.972;5.682;2022-10-17T16:52:46;32.53;;;20.55;;
75216;SDS011;63800;51.972;5.682;2022-10-17T16:55:12;36.15;;;23.33;;
75216;SDS011;63800;51.972;5.682;2022-10-17T16:57:43;34.78;;;22.25;;
75216;SDS011;63800;51.972;5.682;2022-10-17T17:00:10;32.95;;;20.65;;